19:18
Airports
History
Links
Donate
Help keep this website running!
PayPal
Bitcoin
This page is community maintained. The information is intended for PC simulator navigation or reference.
Always use approved charts for navigation.
LICC
Catania Fontanarossa
Catania Fontanarossa (LICC)
Catania, Sicily, Italy (95121)
(C)
Lat/Lng:37° 28' 0.4" N / 15° 3' 59.04" E
37.466779 / 15.066401
Elevation:39'ft / 12mMSL
ID / ICAO:LICC
Runways:1
Longest:08-26
Asphalt 2,430m / 7,973ft
Controlled:Yes
METAR18:50 GMT 2017-11-18
Altimeter: 29.91
Visibility: 6.2 statute miles
Wind: 4 knots (from 240°)
Temp: 14°c / 57°f
Humidity: 82.1%

METAR: LICC 181850Z 24004KT 9999 FEW050 SCT080 14/11 Q1013

(Powered by phpweather)
Airport Radio Frequencies
Ground: 129.72
Tower: 118.7
Approach: 120.8
Nearby VORs <50NM
Nearby NDBs
Runway 08 / 26
Dimensions:2430.1 x 45.1m 7973' x 148'ft
Surface:Asphalt
Edge Lights:Medium intensity
Runway 08 [A]Runway 26 [B]
Heading:083°TH 263°TH
Lat:
Lng:
37° 27' 56.25"N
15° 3' 9.7"E
37° 28' 4.56"N
15° 4' 48.39"E
TDZ:Yes, lighted
User Notes and Comments
37° 28' 0.4" N / 15° 3' 59.04" E
Distance To
Airport ID:
Nearby Airports
(C) SIGONELLA 9.1 NM
LICZ ( WX ) WSW 240°
(C) Magliocco 41.3 NM
LICB SW 217°
(C) Reggio Calabria 52.6 NM
LICR ( WX ) NE 37°
4 Vibo Valentia 97.1 NM
LIBJ NNE 33°
(U) BOCCADIFALCO 105.5 NM
LICP ( WX ) WNW 294°
(C) La Valette Luqa 116.5 NM
LMML ( WX ) SSW 196°
(C) PALERMO 117.8 NM
LICJ ( WX ) WNW 294°
VFR Chart
Flight Planning at SkyVector.com